Weather at Ostrowy (Łobodno) Highway Strip

Public forecast

Using degrees Celsius for public forecast. Weather courtesy of forecast.io.

Closest aviation weather report (METAR) to Ostrowy (Łobodno) Highway Strip

Closest report is Katowice Wojciech Korfanty International Airport, 28.5 nm (52.7 km) S.

2024/05/30 15:30 (retrieved 30 minutes ago)

EPKT 301530Z 12013KT CAVOK 23/11 Q1004

Closest aviation forecast (TAF) to Ostrowy (Łobodno) Highway Strip

Closest forecast is Katowice Wojciech Korfanty International Airport, 28.5 nm (52.7 km) S.

2024/05/30 12:33 (retrieved 3 hours ago)

TAF EPKT 301130Z 3012/3112 10011KT 9999 SCT045 PROB40 TEMPO 3012/3020 VRB16G30KT 3000 TSRAGR BECMG 3018/3021 VRB02KT PROB40 3102/3105 4000 BR BECMG 3108/3110 09010KT PROB30 TEMPO 3110/3112 VRB19G34KT 2500 TSRA BKN040CB